< < Back
Terminal Aerodrome Forecast


Current Version              Previous Versions:   1  2  3  4  5  6  7  8  9  

Terminal Aerodrome Forecast

505
FTUS42 KMLB 171900 AAA
TAFMCO
TAF AMD
KMCO 171914Z 1719/1818 06017KT P6SM VCSH SCT021 BKN030 OVC250
     FM180200 06012KT P6SM -SHRA SCT008 BKN015 OVC020
     FM181200 11013KT P6SM VCSH BKN035 OVC060=



Latest METAR

881
SAUS70 KWBC 180800 RRD
MTRMCO
METAR KMCO 180753Z 07008KT 10SM BKN024 OVC220 21/18 A3009 RMK AO2 SLP186
T02110183


USA.gov is the U.S. government's official web portal to all federal, state and local government web resources and services.